Verifier — MLWN4 — position and weather

sailwx.info

Track history (hours):
 
Tides and Currents Weather Stations Pressure Air Temp Water Temp Dewpoint Dewpoint Depression Visibility Wind Speed Wind Dir Waves Ship Positions

Verifier

Last reported at 2014-Oct-17 15:33 UTC. Time now 2014-Oct-20 21:16 UTC.
Position N 51°30' E 000°49'.

Length 21 m; draft 2 m.

Type: Port tender. MMSI: 235000932.

Date/timePositionNaut miles runAvg speedWind from/ knotsBaromVisibWave heightAir tempDewpointWater temp
2014-Oct-17 15:33N 51°30' E 000°49'17 8.0
2014-Oct-17 13:24N 51°31' E 001°17'0 0.5
2014-Oct-17 12:33N 51°31' E 001°16'0 0.3
2014-Oct-17 11:33N 51°30' E 001°16'1 0.6
2014-Oct-17 10:33N 51°30' E 001°17'0 0.3
2014-Oct-17 09:32N 51°30' E 001°16'0 0.3
2014-Oct-17 08:33N 51°30' E 001°16'10 9.8
2014-Oct-17 07:33N 51°29' E 001°00'  
2014-Oct-10 10:27N 51°28' E 000°47'  
Track history (hours):
 
Tides and Currents Weather Stations Pressure Air Temp Water Temp Dewpoint Dewpoint Depression Visibility Wind Speed Wind Dir Waves Ship Positions

Verifier

Last reported at 2014-Oct-17 15:33 UTC. Time now 2014-Oct-20 21:16 UTC.
Position N 51°30' E 000°49'.

Length 21 m; draft 2 m.

Type: Port tender. MMSI: 235000932.

Date/timePositionNaut miles runAvg speedWind from/ knotsBaromVisibWave heightAir tempDewpointWater temp
2014-Oct-17 15:33N 51°30' E 000°49'17 8.0
2014-Oct-17 13:24N 51°31' E 001°17'0 0.5
2014-Oct-17 12:33N 51°31' E 001°16'0 0.3
2014-Oct-17 11:33N 51°30' E 001°16'1 0.6
2014-Oct-17 10:33N 51°30' E 001°17'0 0.3
2014-Oct-17 09:32N 51°30' E 001°16'0 0.3
2014-Oct-17 08:33N 51°30' E 001°16'10 9.8
2014-Oct-17 07:33N 51°29' E 001°00'  
2014-Oct-10 10:27N 51°28' E 000°47'  

Dump ship's entire track history